sensor_id;sensor_type;location;lat;lon;timestamp;temperature;humidity
25582;DHT22;13462;50.764;4.332;2023-05-07T00:01:51;16.40;99.90
25582;DHT22;13462;50.764;4.332;2023-05-07T00:04:17;16.40;99.90
25582;DHT22;13462;50.764;4.332;2023-05-07T00:06:42;16.40;99.90
25582;DHT22;13462;50.764;4.332;2023-05-07T00:09:08;16.40;99.90
25582;DHT22;13462;50.764;4.332;2023-05-07T00:11:33;16.40;99.90
25582;DHT22;13462;50.764;4.332;2023-05-07T00:13:59;16.30;99.90
25582;DHT22;13462;50.764;4.332;2023-05-07T00:16:25;16.20;99.90
25582;DHT22;13462;50.764;4.332;2023-05-07T00:18:50;16.20;99.90
25582;DHT22;13462;50.764;4.332;2023-05-07T00:21:16;16.20;99.90
25582;DHT22;13462;50.764;4.332;2023-05-07T00:23:41;16.10;99.90
25582;DHT22;13462;50.764;4.332;2023-05-07T00:26:07;16.10;99.90
25582;DHT22;13462;50.764;4.332;2023-05-07T00:28:32;16.20;99.90
25582;DHT22;13462;50.764;4.332;2023-05-07T00:30:58;16.10;99.90
25582;DHT22;13462;50.764;4.332;2023-05-07T00:33:23;16.10;99.90
25582;DHT22;13462;50.764;4.332;2023-05-07T00:35:51;16.10;99.90
25582;DHT22;13462;50.764;4.332;2023-05-07T00:38:17;16.10;99.90
25582;DHT22;13462;50.764;4.332;2023-05-07T00:40:42;16.20;99.90
25582;DHT22;13462;50.764;4.332;2023-05-07T00:43:08;16.20;99.90
25582;DHT22;13462;50.764;4.332;2023-05-07T00:45:34;16.20;99.90
25582;DHT22;13462;50.764;4.332;2023-05-07T00:48:00;16.30;99.90
25582;DHT22;13462;50.764;4.332;2023-05-07T00:50:26;16.30;99.90
25582;DHT22;13462;50.764;4.332;2023-05-07T00:52:52;16.20;99.90
25582;DHT22;13462;50.764;4.332;2023-05-07T00:55:18;16.20;99.90
25582;DHT22;13462;50.764;4.332;2023-05-07T00:57:44;16.20;99.90
25582;DHT22;13462;50.764;4.332;2023-05-07T01:00:10;16.20;99.90
25582;DHT22;13462;50.764;4.332;2023-05-07T01:02:37;16.30;99.90
25582;DHT22;13462;50.764;4.332;2023-05-07T01:05:03;16.30;99.90
25582;DHT22;13462;50.764;4.332;2023-05-07T01:07:29;16.20;99.90
25582;DHT22;13462;50.764;4.332;2023-05-07T01:09:55;16.20;99.90
25582;DHT22;13462;50.764;4.332;2023-05-07T01:12:20;16.20;99.90
25582;DHT22;13462;50.764;4.332;2023-05-07T01:14:46;16.10;99.90
25582;DHT22;13462;50.764;4.332;2023-05-07T01:17:14;16.00;99.90
25582;DHT22;13462;50.764;4.332;2023-05-07T01:19:40;16.00;99.90
25582;DHT22;13462;50.764;4.332;2023-05-07T01:22:07;16.00;99.90
25582;DHT22;13462;50.764;4.332;2023-05-07T01:24:33;16.00;99.90
25582;DHT22;13462;50.764;4.332;2023-05-07T01:27:00;15.90;99.90
25582;DHT22;13462;50.764;4.332;2023-05-07T01:29:26;15.80;99.90
25582;DHT22;13462;50.764;4.332;2023-05-07T01:31:52;15.70;99.90
25582;DHT22;13462;50.764;4.332;2023-05-07T01:34:18;15.70;99.90
25582;DHT22;13462;50.764;4.332;2023-05-07T01:36:44;15.70;99.90
25582;DHT22;13462;50.764;4.332;2023-05-07T01:39:10;15.70;99.90
25582;DHT22;13462;50.764;4.332;2023-05-07T01:41:36;15.70;99.90
25582;DHT22;13462;50.764;4.332;2023-05-07T01:44:02;15.70;99.90
25582;DHT22;13462;50.764;4.332;2023-05-07T01:46:28;15.70;99.90
25582;DHT22;13462;50.764;4.332;2023-05-07T01:48:54;15.70;99.90
25582;DHT22;13462;50.764;4.332;2023-05-07T01:51:20;15.70;99.90
25582;DHT22;13462;50.764;4.332;2023-05-07T01:53:46;15.60;99.90
25582;DHT22;13462;50.764;4.332;2023-05-07T01:56:16;15.60;99.90
25582;DHT22;13462;50.764;4.332;2023-05-07T01:58:42;15.60;99.90
25582;DHT22;13462;50.764;4.332;2023-05-07T02:01:07;15.60;99.90
25582;DHT22;13462;50.764;4.332;2023-05-07T02:03:33;15.60;99.90
25582;DHT22;13462;50.764;4.332;2023-05-07T02:05:58;15.60;99.90
25582;DHT22;13462;50.764;4.332;2023-05-07T02:08:24;15.60;99.90
25582;DHT22;13462;50.764;4.332;2023-05-07T02:10:49;15.50;99.90
25582;DHT22;13462;50.764;4.332;2023-05-07T02:13:16;15.50;99.90
25582;DHT22;13462;50.764;4.332;2023-05-07T02:15:42;15.50;99.90
25582;DHT22;13462;50.764;4.332;2023-05-07T02:18:08;15.50;99.90
25582;DHT22;13462;50.764;4.332;2023-05-07T02:20:34;15.40;99.90
25582;DHT22;13462;50.764;4.332;2023-05-07T02:23:00;15.30;99.90
25582;DHT22;13462;50.764;4.332;2023-05-07T02:25:25;15.30;99.90
25582;DHT22;13462;50.764;4.332;2023-05-07T02:27:51;15.30;99.90
25582;DHT22;13462;50.764;4.332;2023-05-07T02:30:16;15.20;99.90
25582;DHT22;13462;50.764;4.332;2023-05-07T02:32:42;15.20;99.90
25582;DHT22;13462;50.764;4.332;2023-05-07T02:35:08;15.20;99.90
25582;DHT22;13462;50.764;4.332;2023-05-07T02:37:33;15.20;99.90
25582;DHT22;13462;50.764;4.332;2023-05-07T02:39:59;15.20;99.90
25582;DHT22;13462;50.764;4.332;2023-05-07T02:42:24;15.20;99.90
25582;DHT22;13462;50.764;4.332;2023-05-07T02:44:50;15.10;99.90
25582;DHT22;13462;50.764;4.332;2023-05-07T02:47:15;15.10;99.90
25582;DHT22;13462;50.764;4.332;2023-05-07T02:49:40;15.10;99.90
25582;DHT22;13462;50.764;4.332;2023-05-07T02:52:06;15.10;99.90
25582;DHT22;13462;50.764;4.332;2023-05-07T02:54:32;15.10;99.90
25582;DHT22;13462;50.764;4.332;2023-05-07T02:56:57;15.10;99.90
25582;DHT22;13462;50.764;4.332;2023-05-07T02:59:23;15.10;99.90
25582;DHT22;13462;50.764;4.332;2023-05-07T03:01:49;15.10;99.90
25582;DHT22;13462;50.764;4.332;2023-05-07T03:04:14;15.10;99.90
25582;DHT22;13462;50.764;4.332;2023-05-07T03:06:40;15.10;99.90
25582;DHT22;13462;50.764;4.332;2023-05-07T03:09:05;15.20;99.90
25582;DHT22;13462;50.764;4.332;2023-05-07T03:11:31;15.20;99.90
25582;DHT22;13462;50.764;4.332;2023-05-07T03:13:57;15.20;99.90
25582;DHT22;13462;50.764;4.332;2023-05-07T03:16:22;15.20;99.90
25582;DHT22;13462;50.764;4.332;2023-05-07T03:18:47;15.30;99.90
25582;DHT22;13462;50.764;4.332;2023-05-07T03:21:13;15.40;99.90
25582;DHT22;13462;50.764;4.332;2023-05-07T03:23:38;15.40;99.90
25582;DHT22;13462;50.764;4.332;2023-05-07T03:26:04;15.40;99.90
25582;DHT22;13462;50.764;4.332;2023-05-07T03:28:29;15.50;99.90
25582;DHT22;13462;50.764;4.332;2023-05-07T03:30:55;15.50;99.90
25582;DHT22;13462;50.764;4.332;2023-05-07T03:33:20;15.60;99.90
25582;DHT22;13462;50.764;4.332;2023-05-07T03:35:46;15.60;99.90
25582;DHT22;13462;50.764;4.332;2023-05-07T03:38:11;15.60;99.90
25582;DHT22;13462;50.764;4.332;2023-05-07T03:40:37;15.60;99.90
25582;DHT22;13462;50.764;4.332;2023-05-07T03:43:02;15.60;99.90
25582;DHT22;13462;50.764;4.332;2023-05-07T03:45:28;15.60;99.90
25582;DHT22;13462;50.764;4.332;2023-05-07T03:47:53;15.60;99.90
25582;DHT22;13462;50.764;4.332;2023-05-07T03:50:19;15.70;99.90
25582;DHT22;13462;50.764;4.332;2023-05-07T03:52:44;15.70;99.90
25582;DHT22;13462;50.764;4.332;2023-05-07T03:55:10;15.70;99.90
25582;DHT22;13462;50.764;4.332;2023-05-07T03:57:36;15.70;99.90
25582;DHT22;13462;50.764;4.332;2023-05-07T04:00:01;15.70;99.90
25582;DHT22;13462;50.764;4.332;2023-05-07T04:02:27;15.70;99.90
25582;DHT22;13462;50.764;4.332;2023-05-07T04:04:52;15.70;99.90
25582;DHT22;13462;50.764;4.332;2023-05-07T04:07:18;15.70;99.90
25582;DHT22;13462;50.764;4.332;2023-05-07T04:09:43;15.70;99.90
25582;DHT22;13462;50.764;4.332;2023-05-07T04:12:09;15.70;99.90
25582;DHT22;13462;50.764;4.332;2023-05-07T04:14:34;15.70;99.90
25582;DHT22;13462;50.764;4.332;2023-05-07T04:17:00;15.70;99.90
25582;DHT22;13462;50.764;4.332;2023-05-07T04:19:25;15.70;99.90
25582;DHT22;13462;50.764;4.332;2023-05-07T04:21:51;15.80;99.90
25582;DHT22;13462;50.764;4.332;2023-05-07T04:24:16;15.80;99.90
25582;DHT22;13462;50.764;4.332;2023-05-07T04:26:42;15.80;99.90
25582;DHT22;13462;50.764;4.332;2023-05-07T04:29:07;15.70;99.90
25582;DHT22;13462;50.764;4.332;2023-05-07T04:31:33;15.60;99.90
25582;DHT22;13462;50.764;4.332;2023-05-07T04:33:58;15.50;99.90
25582;DHT22;13462;50.764;4.332;2023-05-07T04:36:24;15.50;99.90
25582;DHT22;13462;50.764;4.332;2023-05-07T04:38:53;15.30;99.90
25582;DHT22;13462;50.764;4.332;2023-05-07T04:41:18;15.30;99.90
25582;DHT22;13462;50.764;4.332;2023-05-07T04:43:44;15.30;99.90
25582;DHT22;13462;50.764;4.332;2023-05-07T04:46:09;15.40;99.90
25582;DHT22;13462;50.764;4.332;2023-05-07T04:48:35;15.50;99.90
25582;DHT22;13462;50.764;4.332;2023-05-07T04:51:01;15.40;99.90
25582;DHT22;13462;50.764;4.332;2023-05-07T04:53:26;15.40;99.90
25582;DHT22;13462;50.764;4.332;2023-05-07T04:55:56;15.40;99.90
25582;DHT22;13462;50.764;4.332;2023-05-07T04:58:22;15.50;99.90
25582;DHT22;13462;50.764;4.332;2023-05-07T05:00:47;15.50;99.90
25582;DHT22;13462;50.764;4.332;2023-05-07T05:03:13;15.60;99.90
25582;DHT22;13462;50.764;4.332;2023-05-07T05:05:38;15.70;99.90
25582;DHT22;13462;50.764;4.332;2023-05-07T05:08:04;15.70;99.90
25582;DHT22;13462;50.764;4.332;2023-05-07T05:10:29;15.90;99.90
25582;DHT22;13462;50.764;4.332;2023-05-07T05:12:55;15.90;99.90
25582;DHT22;13462;50.764;4.332;2023-05-07T05:15:20;15.90;99.90
25582;DHT22;13462;50.764;4.332;2023-05-07T05:17:46;16.00;99.90
25582;DHT22;13462;50.764;4.332;2023-05-07T05:20:11;16.00;99.90
25582;DHT22;13462;50.764;4.332;2023-05-07T05:22:37;16.20;99.90
25582;DHT22;13462;50.764;4.332;2023-05-07T05:25:03;16.40;99.90
25582;DHT22;13462;50.764;4.332;2023-05-07T05:27:28;16.40;99.90
25582;DHT22;13462;50.764;4.332;2023-05-07T05:29:54;16.50;99.90
25582;DHT22;13462;50.764;4.332;2023-05-07T05:32:19;16.60;99.90
25582;DHT22;13462;50.764;4.332;2023-05-07T05:34:45;16.70;99.90
25582;DHT22;13462;50.764;4.332;2023-05-07T05:37:11;16.90;99.90
25582;DHT22;13462;50.764;4.332;2023-05-07T05:39:36;16.90;99.90
25582;DHT22;13462;50.764;4.332;2023-05-07T05:42:02;16.80;99.90
25582;DHT22;13462;50.764;4.332;2023-05-07T05:44:27;16.70;99.90
25582;DHT22;13462;50.764;4.332;2023-05-07T05:46:53;16.60;99.90
25582;DHT22;13462;50.764;4.332;2023-05-07T05:49:22;16.70;99.90
25582;DHT22;13462;50.764;4.332;2023-05-07T05:51:48;16.70;99.90
25582;DHT22;13462;50.764;4.332;2023-05-07T05:54:13;16.70;99.90
25582;DHT22;13462;50.764;4.332;2023-05-07T05:56:40;16.60;99.90
25582;DHT22;13462;50.764;4.332;2023-05-07T05:59:05;16.40;99.90
25582;DHT22;13462;50.764;4.332;2023-05-07T06:01:31;16.50;99.90
25582;DHT22;13462;50.764;4.332;2023-05-07T06:03:57;16.50;99.90
25582;DHT22;13462;50.764;4.332;2023-05-07T06:06:22;16.40;99.90
25582;DHT22;13462;50.764;4.332;2023-05-07T06:08:48;16.30;99.90
25582;DHT22;13462;50.764;4.332;2023-05-07T06:11:13;16.30;99.90
25582;DHT22;13462;50.764;4.332;2023-05-07T06:13:39;16.30;99.90
25582;DHT22;13462;50.764;4.332;2023-05-07T06:16:05;16.30;99.90
25582;DHT22;13462;50.764;4.332;2023-05-07T06:18:30;16.30;99.90
25582;DHT22;13462;50.764;4.332;2023-05-07T06:20:56;16.30;99.90
25582;DHT22;13462;50.764;4.332;2023-05-07T06:23:21;16.20;99.90
25582;DHT22;13462;50.764;4.332;2023-05-07T06:25:50;16.00;99.90
25582;DHT22;13462;50.764;4.332;2023-05-07T06:28:16;15.90;99.90
25582;DHT22;13462;50.764;4.332;2023-05-07T06:30:42;15.70;99.90
25582;DHT22;13462;50.764;4.332;2023-05-07T06:33:07;15.80;99.90
25582;DHT22;13462;50.764;4.332;2023-05-07T06:35:32;15.80;99.90
25582;DHT22;13462;50.764;4.332;2023-05-07T06:37:59;16.00;99.90
25582;DHT22;13462;50.764;4.332;2023-05-07T06:40:25;16.20;99.90
25582;DHT22;13462;50.764;4.332;2023-05-07T06:42:50;16.20;99.90
25582;DHT22;13462;50.764;4.332;2023-05-07T06:45:16;16.20;99.90
25582;DHT22;13462;50.764;4.332;2023-05-07T06:47:41;16.20;99.90
25582;DHT22;13462;50.764;4.332;2023-05-07T06:50:07;16.40;99.90
25582;DHT22;13462;50.764;4.332;2023-05-07T06:52:33;16.50;99.90
25582;DHT22;13462;50.764;4.332;2023-05-07T06:54:58;16.50;99.90
25582;DHT22;13462;50.764;4.332;2023-05-07T06:57:24;16.60;99.90
25582;DHT22;13462;50.764;4.332;2023-05-07T06:59:49;16.80;99.90
25582;DHT22;13462;50.764;4.332;2023-05-07T07:02:15;16.80;99.90
25582;DHT22;13462;50.764;4.332;2023-05-07T07:04:40;16.90;99.90
25582;DHT22;13462;50.764;4.332;2023-05-07T07:07:07;17.00;99.90
25582;DHT22;13462;50.764;4.332;2023-05-07T07:09:32;16.90;99.90
25582;DHT22;13462;50.764;4.332;2023-05-07T07:11:58;16.80;99.90
25582;DHT22;13462;50.764;4.332;2023-05-07T07:14:23;16.70;99.90
25582;DHT22;13462;50.764;4.332;2023-05-07T07:16:49;16.50;99.90
25582;DHT22;13462;50.764;4.332;2023-05-07T07:19:14;16.80;99.90
25582;DHT22;13462;50.764;4.332;2023-05-07T07:21:42;17.00;99.90
25582;DHT22;13462;50.764;4.332;2023-05-07T07:24:08;17.00;99.90
25582;DHT22;13462;50.764;4.332;2023-05-07T07:26:33;17.00;99.90
25582;DHT22;13462;50.764;4.332;2023-05-07T07:28:59;17.10;99.90
25582;DHT22;13462;50.764;4.332;2023-05-07T07:31:24;17.10;99.90
25582;DHT22;13462;50.764;4.332;2023-05-07T07:33:50;17.20;99.90
25582;DHT22;13462;50.764;4.332;2023-05-07T07:36:16;17.20;99.90
25582;DHT22;13462;50.764;4.332;2023-05-07T07:38:41;17.30;99.90
25582;DHT22;13462;50.764;4.332;2023-05-07T07:41:09;17.20;99.90
25582;DHT22;13462;50.764;4.332;2023-05-07T07:43:35;17.10;99.90
25582;DHT22;13462;50.764;4.332;2023-05-07T07:46:01;17.20;99.90
25582;DHT22;13462;50.764;4.332;2023-05-07T07:48:26;17.20;99.90
25582;DHT22;13462;50.764;4.332;2023-05-07T07:50:52;17.20;99.90
25582;DHT22;13462;50.764;4.332;2023-05-07T07:53:17;16.90;99.90
25582;DHT22;13462;50.764;4.332;2023-05-07T07:55:43;17.00;99.90
25582;DHT22;13462;50.764;4.332;2023-05-07T07:58:09;17.10;99.90
25582;DHT22;13462;50.764;4.332;2023-05-07T08:00:34;17.30;99.90
25582;DHT22;13462;50.764;4.332;2023-05-07T08:03:00;17.10;99.90
25582;DHT22;13462;50.764;4.332;2023-05-07T08:05:26;16.90;99.90
25582;DHT22;13462;50.764;4.332;2023-05-07T08:07:51;17.00;99.90
25582;DHT22;13462;50.764;4.332;2023-05-07T08:10:18;17.00;99.90
25582;DHT22;13462;50.764;4.332;2023-05-07T08:12:50;17.00;99.90
25582;DHT22;13462;50.764;4.332;2023-05-07T08:15:15;17.00;99.90
25582;DHT22;13462;50.764;4.332;2023-05-07T08:17:41;17.10;99.90
25582;DHT22;13462;50.764;4.332;2023-05-07T08:20:06;17.10;99.90
25582;DHT22;13462;50.764;4.332;2023-05-07T08:22:34;16.90;99.90
25582;DHT22;13462;50.764;4.332;2023-05-07T08:24:59;17.00;99.90
25582;DHT22;13462;50.764;4.332;2023-05-07T08:27:25;16.90;99.90
25582;DHT22;13462;50.764;4.332;2023-05-07T08:29:51;17.10;99.90
25582;DHT22;13462;50.764;4.332;2023-05-07T08:32:16;17.30;99.90
25582;DHT22;13462;50.764;4.332;2023-05-07T08:34:42;17.40;99.90
25582;DHT22;13462;50.764;4.332;2023-05-07T08:37:07;17.50;99.90
25582;DHT22;13462;50.764;4.332;2023-05-07T08:39:33;17.40;99.90
25582;DHT22;13462;50.764;4.332;2023-05-07T08:42:00;17.40;99.90
25582;DHT22;13462;50.764;4.332;2023-05-07T08:44:26;17.30;99.90
25582;DHT22;13462;50.764;4.332;2023-05-07T08:46:53;17.30;99.90
25582;DHT22;13462;50.764;4.332;2023-05-07T08:49:21;17.50;99.90
25582;DHT22;13462;50.764;4.332;2023-05-07T08:51:46;17.60;99.90
25582;DHT22;13462;50.764;4.332;2023-05-07T08:54:12;17.70;99.90
25582;DHT22;13462;50.764;4.332;2023-05-07T08:56:41;17.80;99.90
25582;DHT22;13462;50.764;4.332;2023-05-07T08:59:06;18.00;99.90
25582;DHT22;13462;50.764;4.332;2023-05-07T09:01:32;18.10;99.90
25582;DHT22;13462;50.764;4.332;2023-05-07T09:03:58;18.20;99.90
25582;DHT22;13462;50.764;4.332;2023-05-07T09:06:23;18.40;99.90
25582;DHT22;13462;50.764;4.332;2023-05-07T09:08:49;18.40;99.90
25582;DHT22;13462;50.764;4.332;2023-05-07T09:11:16;18.40;99.90
25582;DHT22;13462;50.764;4.332;2023-05-07T09:13:42;18.50;99.90
25582;DHT22;13462;50.764;4.332;2023-05-07T09:16:11;18.70;99.90
25582;DHT22;13462;50.764;4.332;2023-05-07T09:18:40;18.70;99.90
25582;DHT22;13462;50.764;4.332;2023-05-07T09:21:09;18.70;99.90
25582;DHT22;13462;50.764;4.332;2023-05-07T09:23:35;18.70;99.90
25582;DHT22;13462;50.764;4.332;2023-05-07T09:26:00;18.80;99.90
25582;DHT22;13462;50.764;4.332;2023-05-07T09:28:27;18.90;99.90
25582;DHT22;13462;50.764;4.332;2023-05-07T09:30:52;18.90;99.90
25582;DHT22;13462;50.764;4.332;2023-05-07T09:33:18;18.90;99.90
25582;DHT22;13462;50.764;4.332;2023-05-07T09:35:43;18.90;99.90
25582;DHT22;13462;50.764;4.332;2023-05-07T09:38:09;19.00;99.90
25582;DHT22;13462;50.764;4.332;2023-05-07T09:40:34;18.90;99.90
25582;DHT22;13462;50.764;4.332;2023-05-07T09:43:09;18.80;99.90
25582;DHT22;13462;50.764;4.332;2023-05-07T09:45:35;18.70;99.90
25582;DHT22;13462;50.764;4.332;2023-05-07T09:48:01;18.40;99.90
25582;DHT22;13462;50.764;4.332;2023-05-07T09:50:32;18.40;99.90
25582;DHT22;13462;50.764;4.332;2023-05-07T09:53:01;18.40;99.90
25582;DHT22;13462;50.764;4.332;2023-05-07T09:55:28;18.40;99.90
25582;DHT22;13462;50.764;4.332;2023-05-07T09:57:54;18.50;99.90
25582;DHT22;13462;50.764;4.332;2023-05-07T10:00:21;18.60;99.90
25582;DHT22;13462;50.764;4.332;2023-05-07T10:02:48;18.70;99.90
25582;DHT22;13462;50.764;4.332;2023-05-07T10:05:14;18.70;99.90
25582;DHT22;13462;50.764;4.332;2023-05-07T10:07:40;18.60;99.90
25582;DHT22;13462;50.764;4.332;2023-05-07T10:10:06;18.60;99.90
25582;DHT22;13462;50.764;4.332;2023-05-07T10:12:31;18.50;99.90
25582;DHT22;13462;50.764;4.332;2023-05-07T10:15:03;18.50;99.90
25582;DHT22;13462;50.764;4.332;2023-05-07T10:17:29;18.60;99.90
25582;DHT22;13462;50.764;4.332;2023-05-07T10:19:55;18.80;99.90
25582;DHT22;13462;50.764;4.332;2023-05-07T10:22:20;18.90;99.90
25582;DHT22;13462;50.764;4.332;2023-05-07T10:24:46;18.90;99.90
25582;DHT22;13462;50.764;4.332;2023-05-07T10:27:13;18.90;99.90
25582;DHT22;13462;50.764;4.332;2023-05-07T10:29:49;18.80;99.90
25582;DHT22;13462;50.764;4.332;2023-05-07T10:32:30;18.70;99.90
25582;DHT22;13462;50.764;4.332;2023-05-07T10:34:59;18.70;99.90
25582;DHT22;13462;50.764;4.332;2023-05-07T10:37:25;18.80;99.90
25582;DHT22;13462;50.764;4.332;2023-05-07T10:39:51;18.90;99.90
25582;DHT22;13462;50.764;4.332;2023-05-07T10:42:16;19.10;99.90
25582;DHT22;13462;50.764;4.332;2023-05-07T10:44:42;19.20;99.90
25582;DHT22;13462;50.764;4.332;2023-05-07T10:49:35;19.60;99.90
25582;DHT22;13462;50.764;4.332;2023-05-07T10:54:42;19.60;99.90
25582;DHT22;13462;50.764;4.332;2023-05-07T10:59:52;19.50;99.90
25582;DHT22;13462;50.764;4.332;2023-05-07T11:02:18;19.70;99.90
25582;DHT22;13462;50.764;4.332;2023-05-07T11:04:44;19.80;99.90
25582;DHT22;13462;50.764;4.332;2023-05-07T11:07:26;19.80;99.90
25582;DHT22;13462;50.764;4.332;2023-05-07T11:15:12;20.10;99.90
25582;DHT22;13462;50.764;4.332;2023-05-07T11:20:19;20.50;99.90
25582;DHT22;13462;50.764;4.332;2023-05-07T11:22:44;20.40;99.90
25582;DHT22;13462;50.764;4.332;2023-05-07T11:25:10;20.40;99.90
25582;DHT22;13462;50.764;4.332;2023-05-07T11:27:36;20.30;99.90
25582;DHT22;13462;50.764;4.332;2023-05-07T11:30:01;20.40;99.90
25582;DHT22;13462;50.764;4.332;2023-05-07T11:32:28;20.50;99.90
25582;DHT22;13462;50.764;4.332;2023-05-07T11:34:58;20.70;99.90
25582;DHT22;13462;50.764;4.332;2023-05-07T11:37:24;20.90;99.90
25582;DHT22;13462;50.764;4.332;2023-05-07T11:39:49;20.80;99.90
25582;DHT22;13462;50.764;4.332;2023-05-07T11:42:30;20.90;99.90
25582;DHT22;13462;50.764;4.332;2023-05-07T11:44:55;20.80;99.90
25582;DHT22;13462;50.764;4.332;2023-05-07T11:47:21;21.10;99.90
25582;DHT22;13462;50.764;4.332;2023-05-07T11:49:50;21.20;99.90
25582;DHT22;13462;50.764;4.332;2023-05-07T11:52:17;21.40;99.90
25582;DHT22;13462;50.764;4.332;2023-05-07T11:54:55;21.40;99.90
25582;DHT22;13462;50.764;4.332;2023-05-07T11:57:22;21.30;99.90
25582;DHT22;13462;50.764;4.332;2023-05-07T11:59:47;21.10;99.90
25582;DHT22;13462;50.764;4.332;2023-05-07T12:02:13;21.10;99.90
25582;DHT22;13462;50.764;4.332;2023-05-07T12:04:39;21.20;99.90
25582;DHT22;13462;50.764;4.332;2023-05-07T12:07:05;21.30;99.90
25582;DHT22;13462;50.764;4.332;2023-05-07T12:09:32;21.20;99.90
25582;DHT22;13462;50.764;4.332;2023-05-07T12:12:02;21.10;99.90
25582;DHT22;13462;50.764;4.332;2023-05-07T12:14:27;21.00;99.90
25582;DHT22;13462;50.764;4.332;2023-05-07T12:16:54;21.10;99.90
25582;DHT22;13462;50.764;4.332;2023-05-07T12:19:19;21.10;99.90
25582;DHT22;13462;50.764;4.332;2023-05-07T12:21:45;20.90;99.90
25582;DHT22;13462;50.764;4.332;2023-05-07T12:24:11;21.20;99.90
25582;DHT22;13462;50.764;4.332;2023-05-07T12:26:37;21.30;99.90
25582;DHT22;13462;50.764;4.332;2023-05-07T12:29:03;21.20;99.90
25582;DHT22;13462;50.764;4.332;2023-05-07T12:31:28;21.20;99.90
25582;DHT22;13462;50.764;4.332;2023-05-07T12:33:54;21.00;99.90
25582;DHT22;13462;50.764;4.332;2023-05-07T12:36:19;21.00;99.90
25582;DHT22;13462;50.764;4.332;2023-05-07T12:38:46;20.90;99.90
25582;DHT22;13462;50.764;4.332;2023-05-07T12:41:15;20.80;99.90
25582;DHT22;13462;50.764;4.332;2023-05-07T12:43:41;21.00;99.90
25582;DHT22;13462;50.764;4.332;2023-05-07T12:46:08;21.20;99.90
25582;DHT22;13462;50.764;4.332;2023-05-07T12:48:35;21.10;99.90
25582;DHT22;13462;50.764;4.332;2023-05-07T12:51:01;21.00;99.90
25582;DHT22;13462;50.764;4.332;2023-05-07T12:53:28;21.20;99.90
25582;DHT22;13462;50.764;4.332;2023-05-07T12:55:55;21.40;99.90
25582;DHT22;13462;50.764;4.332;2023-05-07T13:00:50;21.10;99.90
25582;DHT22;13462;50.764;4.332;2023-05-07T13:03:29;21.20;99.90
25582;DHT22;13462;50.764;4.332;2023-05-07T13:05:56;21.20;99.90
25582;DHT22;13462;50.764;4.332;2023-05-07T13:08:33;20.90;99.90
25582;DHT22;13462;50.764;4.332;2023-05-07T13:10:59;20.90;99.90
25582;DHT22;13462;50.764;4.332;2023-05-07T13:13:25;21.00;99.90
25582;DHT22;13462;50.764;4.332;2023-05-07T13:15:51;21.20;99.90
25582;DHT22;13462;50.764;4.332;2023-05-07T13:18:16;21.00;99.90
25582;DHT22;13462;50.764;4.332;2023-05-07T13:20:42;21.00;99.90
25582;DHT22;13462;50.764;4.332;2023-05-07T13:23:08;21.00;99.90
25582;DHT22;13462;50.764;4.332;2023-05-07T13:25:33;20.90;99.90
25582;DHT22;13462;50.764;4.332;2023-05-07T13:27:59;20.80;99.90
25582;DHT22;13462;50.764;4.332;2023-05-07T13:30:24;20.70;99.90
25582;DHT22;13462;50.764;4.332;2023-05-07T13:32:51;20.60;99.90
25582;DHT22;13462;50.764;4.332;2023-05-07T13:35:17;20.40;99.90
25582;DHT22;13462;50.764;4.332;2023-05-07T13:37:42;20.30;99.90
25582;DHT22;13462;50.764;4.332;2023-05-07T13:40:08;20.20;99.90
25582;DHT22;13462;50.764;4.332;2023-05-07T13:42:34;20.10;99.90
25582;DHT22;13462;50.764;4.332;2023-05-07T13:45:00;20.10;99.90
25582;DHT22;13462;50.764;4.332;2023-05-07T13:47:26;20.30;99.90
25582;DHT22;13462;50.764;4.332;2023-05-07T13:49:51;20.20;99.90
25582;DHT22;13462;50.764;4.332;2023-05-07T13:52:17;19.80;99.90
25582;DHT22;13462;50.764;4.332;2023-05-07T13:54:42;19.60;99.90
25582;DHT22;13462;50.764;4.332;2023-05-07T13:57:08;19.80;99.90
25582;DHT22;13462;50.764;4.332;2023-05-07T13:59:33;19.90;99.90
25582;DHT22;13462;50.764;4.332;2023-05-07T14:01:59;19.90;99.90
25582;DHT22;13462;50.764;4.332;2023-05-07T14:04:25;19.90;99.90
25582;DHT22;13462;50.764;4.332;2023-05-07T14:06:50;19.80;99.90
25582;DHT22;13462;50.764;4.332;2023-05-07T14:09:16;19.70;99.90
25582;DHT22;13462;50.764;4.332;2023-05-07T14:11:41;19.70;99.90
25582;DHT22;13462;50.764;4.332;2023-05-07T14:14:07;19.80;99.90
25582;DHT22;13462;50.764;4.332;2023-05-07T14:16:33;20.00;99.90
25582;DHT22;13462;50.764;4.332;2023-05-07T14:18:58;20.20;99.90
25582;DHT22;13462;50.764;4.332;2023-05-07T14:21:24;20.20;99.90
25582;DHT22;13462;50.764;4.332;2023-05-07T14:23:49;20.00;99.90
25582;DHT22;13462;50.764;4.332;2023-05-07T14:26:15;20.00;99.90
25582;DHT22;13462;50.764;4.332;2023-05-07T14:28:41;20.10;99.90
25582;DHT22;13462;50.764;4.332;2023-05-07T14:31:11;20.10;99.90
25582;DHT22;13462;50.764;4.332;2023-05-07T14:33:37;19.90;99.90
25582;DHT22;13462;50.764;4.332;2023-05-07T14:36:02;19.90;99.90
25582;DHT22;13462;50.764;4.332;2023-05-07T14:38:29;19.80;99.90
25582;DHT22;13462;50.764;4.332;2023-05-07T14:40:55;19.70;99.90
25582;DHT22;13462;50.764;4.332;2023-05-07T14:43:21;19.90;99.90
25582;DHT22;13462;50.764;4.332;2023-05-07T14:45:47;19.90;99.90
25582;DHT22;13462;50.764;4.332;2023-05-07T14:48:12;20.00;99.90
25582;DHT22;13462;50.764;4.332;2023-05-07T14:50:43;20.00;99.90
25582;DHT22;13462;50.764;4.332;2023-05-07T14:53:08;19.90;99.90
25582;DHT22;13462;50.764;4.332;2023-05-07T14:55:34;20.00;99.90
25582;DHT22;13462;50.764;4.332;2023-05-07T14:58:00;20.00;99.90
25582;DHT22;13462;50.764;4.332;2023-05-07T15:00:25;20.00;99.90
25582;DHT22;13462;50.764;4.332;2023-05-07T15:02:51;19.70;99.90
25582;DHT22;13462;50.764;4.332;2023-05-07T15:05:17;19.50;99.90
25582;DHT22;13462;50.764;4.332;2023-05-07T15:07:44;19.70;99.90
25582;DHT22;13462;50.764;4.332;2023-05-07T15:10:10;19.60;99.90
25582;DHT22;13462;50.764;4.332;2023-05-07T15:12:35;19.50;99.90
25582;DHT22;13462;50.764;4.332;2023-05-07T15:15:01;19.60;99.90
25582;DHT22;13462;50.764;4.332;2023-05-07T15:17:26;19.60;99.90
25582;DHT22;13462;50.764;4.332;2023-05-07T15:19:52;19.50;99.90
25582;DHT22;13462;50.764;4.332;2023-05-07T15:22:17;19.50;99.90
25582;DHT22;13462;50.764;4.332;2023-05-07T15:24:43;19.30;99.90
25582;DHT22;13462;50.764;4.332;2023-05-07T15:27:10;19.30;99.90
25582;DHT22;13462;50.764;4.332;2023-05-07T15:29:35;19.40;99.90
25582;DHT22;13462;50.764;4.332;2023-05-07T15:32:01;19.40;99.90
25582;DHT22;13462;50.764;4.332;2023-05-07T15:34:26;19.20;99.90
25582;DHT22;13462;50.764;4.332;2023-05-07T15:36:52;19.30;99.90
25582;DHT22;13462;50.764;4.332;2023-05-07T15:39:18;19.40;99.90
25582;DHT22;13462;50.764;4.332;2023-05-07T15:41:43;19.60;99.90